Aviation Digital Data Service (ADDS)

Output produced by METARs form (0327 UTC 30 May 2017)
found at http://www.aviationweather.gov/adds/metars/
 
TAF SABE 292300Z 3000/3024 16005KT 9999 SCT030 TX15/3019Z TN10/3010Z 
     BECMG 3005/3008 7000 SCT010 
     BECMG 3012/3014 9999 SCT035
       
TAF SACO 292300Z 3000/3024 07005KT 9999 BKN025 TX15/3018Z TN06/3010Z 
     PROB40 
     TEMPO 3007/3012 VRB03KT 5000 DZ/BR BKN010 OVC020 
     BECMG 3016/3018 18010KT 9999 SCT030
       
TAF SAAR 292300Z 3000/3024 09005KT 9999 BKN025 TX16/3019Z TN07/3010Z 
     BECMG 3005/3008 14005KT 5000 BR BKN010 
     BECMG 3010/3011 0500 FG OVC005 
     BECMG 3014/3017 16005KT 9999 SCT030
       
TAF SABE 292300Z 3000/3024 16005KT 9999 SCT030 TX15/3019Z TN10/3010Z 
     BECMG 3005/3008 7000 SCT010 
     BECMG 3012/3014 9999 SCT035
       
TAF SACO 292300Z 3000/3024 07005KT 9999 BKN025 TX15/3018Z TN06/3010Z 
     PROB40 
     TEMPO 3007/3012 VRB03KT 5000 DZ/BR BKN010 OVC020 
     BECMG 3016/3018 18010KT 9999 SCT030
       
TAF SADF 292300Z 3000/3024 11010KT 9999 BKN025 TX16/3019Z TN09/3010Z 
     BECMG 3003/3006 VRB03KT 2000 BR SCT010 
     PROB40 0911 0800 FG BKN008 
     BECMG 3013/3015 16005T 9999 SCT020
       
TAF SAEZ 292300Z 3000/3024 18005KT 7000 SCT030 TX15/3018Z TN05/3009Z 
     BECMG 3004/3007 3000 BR SCT020 
     PROB40 3007/3011 0700 BCFG BKN008 
     BECMG 3013/3016 14005KT 9999 SCT030
       
TAF SAME 292300Z 3000/3024 14005KT 9999 FEW040 SCT080 TN04/3010Z TX17/3020Z 
     PROB30 
     TEMPO 3010/3014 16005KT 6000 HZFU SCT040
       
TAF SANT 292300Z 3000/3024 18005KT 4000 HZ BKN030 TX13/3018Z TN08/3010Z 
     BECMG 3004/3007 5000 DZ BR BKN010 OVC030 
     PROB40 
     TEMPO 3009/3012 VRB03KT 1500 DZ OVC005
       
TAF SARE 292300Z 3000/3024 20005KT 9999 OVC012 TX15/3018Z TN13/3010Z 
     BECMG 3002/3004 6000 DZBR SCT008 OVC010 
     BECMG 3014/3016 2000 +DZRA OVC005 OVC035
       
TAF SARF 292300Z 3000/3024 20005KT 8000 -DZ OVC005 TX16/3018Z TN14/3010Z 
     BECMG 3010/3012 3000 +DZBR BKN006 OVC015
       
TAF SARI 292300Z 3000/3024 24005KT 8000 -DZ BKN006 OVC015 TX20/3018Z TN15/3010Z 
     BECMG 3004/3006 5000 RADZ OVC005 OVC020 
     BECMG 3010/3012 02005KT 8000 -TSRA BKN008 OVC040 FEW050CB
       
TAF SARP 292300Z 3000/3024 18005KT 8000 -DZRA BKN008 OVC040 TX16/3018Z TN15/3010Z 
     BECMG 3003/3005 5000 +DZRA OVC005 BKN040 
     BECMG 3015/3017 5000 -TSRA BKN008 OVC040 FEW050CB
       
TAF SASA 291100Z 2912/3012 VRB03KT 9999 BKN015 TX13/2918Z TN06/3010Z 
     PROB40 
     TEMPO 2912/2915 5000 BR BKN010 
     BECMG 2921/2923 09005KT 5000 DZ BR BKN010 OVC020
       
TAF SASJ 291700Z 2918/3018 09005KT 9999 SCT015 BKN025 TX13/2918Z TN07/3010Z 
     BECMG 2921/2923 09005KT 5000 DZ BR BKN010 OVC020 
     PROB40 
     TEMPO 3009/3012 VRB03KT 1500 DZ OVC005
       
TAF SAVC 292300Z 3000/3024 32004KT CAVOK TX13/3019Z TN02/3012Z 
     BECMG 3006/3009 29015KT 9999 FEW030 SCT090
       
TAF SAWE 292300Z 3000/3024 34005KT 9999 BR SCT015 OVC050 TX05/3019Z TN00/3012Z 
     PROB40 
     TEMPO 3003/3014 0500FG 
     BECMG 3014/3016 30015KT 9999 NSW BKN025 
     BECMG 3016/3018 25015KT
       
TAF SAWG 292300Z 3000/3024 36018KT 9999 SCT030 BKN070 TX07/3019Z TN00/3012Z 
     BECMG 3006/3008 VRB03KT 
     BECMG 3010/3013 5000 BR
       
TAF SAWH 292300Z 3000/3024 09005KT 9999 FEW030 SCT090 TX05/3019Z TN00/3012Z 
     PROB40 
     TEMPO 3003/3005 -RA BKN020 BKN080 
     BECMG 3009/3012 27018KT
       
TAF SAZM 292300Z 3000/3024 VRB03KT 6000 FEW030 TX12/3019Z TN01/3010Z 
     BECMG 3003/3006 2000 BR BKN010 
     BECMG 3012/3015 18010KT 9999 BKN020
       
TAF SAZN 292300Z 3000/3024 12005KT CAVOK TX14/3019Z TN01/3010Z 
     PROB40 3007/3012 5000 BR NSC 
     BECMG 3012/3015 9999 SCT030
       
TAF SAZS 292300Z 3000/3024 18005KT CAVOK TX08/3019Z TNM04/3010Z 
     PROB30 3007/3011 5000 BR FEW020 
     BECMG 3012/3015 11010KT 9999 SCT030
       
TAF SARI 292300Z 3000/3024 24005KT 8000 -DZ BKN006 OVC015 TX20/3018Z TN15/3010Z 
     BECMG 3004/3006 5000 RADZ OVC005 OVC020 
     BECMG 3010/3012 02005KT 8000 -TSRA BKN008 OVC040 FEW050CB
       
TAF SAVC 292300Z 3000/3024 32004KT CAVOK TX13/3019Z TN02/3012Z 
     BECMG 3006/3009 29015KT 9999 FEW030 SCT090
       
TAF SAME 292300Z 3000/3024 14005KT 9999 FEW040 SCT080 TN04/3010Z TX17/3020Z 
     PROB30 
     TEMPO 3010/3014 16005KT 6000 HZFU SCT040
       
TAF SARF 292300Z 3000/3024 20005KT 8000 -DZ OVC005 TX16/3018Z TN14/3010Z 
     BECMG 3010/3012 3000 +DZBR BKN006 OVC015
       
TAF SASJ 291700Z 2918/3018 09005KT 9999 SCT015 BKN025 TX13/2918Z TN07/3010Z 
     BECMG 2921/2923 09005KT 5000 DZ BR BKN010 OVC020 
     PROB40 
     TEMPO 3009/3012 VRB03KT 1500 DZ OVC005
       
TAF SASA 291100Z 2912/3012 VRB03KT 9999 BKN015 TX13/2918Z TN06/3010Z 
     PROB40 
     TEMPO 2912/2915 5000 BR BKN010 
     BECMG 2921/2923 09005KT 5000 DZ BR BKN010 OVC020
       
TAF SAZM 292300Z 3000/3024 VRB03KT 6000 FEW030 TX12/3019Z TN01/3010Z 
     BECMG 3003/3006 2000 BR BKN010 
     BECMG 3012/3015 18010KT 9999 BKN020
       
TAF SAEZ 292300Z 3000/3024 18005KT 7000 SCT030 TX15/3018Z TN05/3009Z 
     BECMG 3004/3007 3000 BR SCT020 
     PROB40 3007/3011 0700 BCFG BKN008 
     BECMG 3013/3016 14005KT 9999 SCT030
       
TAF SARP 292300Z 3000/3024 18005KT 8000 -DZRA BKN008 OVC040 TX16/3018Z TN15/3010Z 
     BECMG 3003/3005 5000 +DZRA OVC005 BKN040 
     BECMG 3015/3017 5000 -TSRA BKN008 OVC040 FEW050CB
       
TAF SAZN 292300Z 3000/3024 12005KT CAVOK TX14/3019Z TN01/3010Z 
     PROB40 3007/3012 5000 BR NSC 
     BECMG 3012/3015 9999 SCT030
       
TAF SARE 292300Z 3000/3024 20005KT 9999 OVC012 TX15/3018Z TN13/3010Z 
     BECMG 3002/3004 6000 DZBR SCT008 OVC010 
     BECMG 3014/3016 2000 +DZRA OVC005 OVC035
       
TAF SAWG 292300Z 3000/3024 36018KT 9999 SCT030 BKN070 TX07/3019Z TN00/3012Z 
     BECMG 3006/3008 VRB03KT 
     BECMG 3010/3013 5000 BR
       
TAF SAWE 292300Z 3000/3024 34005KT 9999 BR SCT015 OVC050 TX05/3019Z TN00/3012Z 
     PROB40 
     TEMPO 3003/3014 0500FG 
     BECMG 3014/3016 30015KT 9999 NSW BKN025 
     BECMG 3016/3018 25015KT
       
TAF SAAR 292300Z 3000/3024 09005KT 9999 BKN025 TX16/3019Z TN07/3010Z 
     BECMG 3005/3008 14005KT 5000 BR BKN010 
     BECMG 3010/3011 0500 FG OVC005 
     BECMG 3014/3017 16005KT 9999 SCT030
       
TAF SAAR 292300Z 3000/3024 09005KT 9999 BKN025 TX16/3019Z TN07/3010Z 
     BECMG 3005/3008 14005KT 5000 BR BKN010 
     BECMG 3010/3011 0500 FG OVC005 
     BECMG 3014/3017 16005KT 9999 SCT030
       
TAF SABE 292300Z 3000/3024 16005KT 9999 SCT030 TX15/3019Z TN10/3010Z 
     BECMG 3005/3008 7000 SCT010 
     BECMG 3012/3014 9999 SCT035
       
TAF SACO 292300Z 3000/3024 07005KT 9999 BKN025 TX15/3018Z TN06/3010Z 
     PROB40 
     TEMPO 3007/3012 VRB03KT 5000 DZ/BR BKN010 OVC020 
     BECMG 3016/3018 18010KT 9999 SCT030
       
TAF SADF 292300Z 3000/3024 11010KT 9999 BKN025 TX16/3019Z TN09/3010Z 
     BECMG 3003/3006 VRB03KT 2000 BR SCT010 
     PROB40 0911 0800 FG BKN008 
     BECMG 3013/3015 16005T 9999 SCT020
       
TAF SAEZ 292300Z 3000/3024 18005KT 7000 SCT030 TX15/3018Z TN05/3009Z 
     BECMG 3004/3007 3000 BR SCT020 
     PROB40 3007/3011 0700 BCFG BKN008 
     BECMG 3013/3016 14005KT 9999 SCT030
       
TAF SAME 292300Z 3000/3024 14005KT 9999 FEW040 SCT080 TN04/3010Z TX17/3020Z 
     PROB30 
     TEMPO 3010/3014 16005KT 6000 HZFU SCT040
       
TAF SANT 292300Z 3000/3024 18005KT 4000 HZ BKN030 TX13/3018Z TN08/3010Z 
     BECMG 3004/3007 5000 DZ BR BKN010 OVC030 
     PROB40 
     TEMPO 3009/3012 VRB03KT 1500 DZ OVC005
       
TAF SARE 292300Z 3000/3024 20005KT 9999 OVC012 TX15/3018Z TN13/3010Z 
     BECMG 3002/3004 6000 DZBR SCT008 OVC010 
     BECMG 3014/3016 2000 +DZRA OVC005 OVC035
       
TAF SARF 292300Z 3000/3024 20005KT 8000 -DZ OVC005 TX16/3018Z TN14/3010Z 
     BECMG 3010/3012 3000 +DZBR BKN006 OVC015
       
TAF SARI 292300Z 3000/3024 24005KT 8000 -DZ BKN006 OVC015 TX20/3018Z TN15/3010Z 
     BECMG 3004/3006 5000 RADZ OVC005 OVC020 
     BECMG 3010/3012 02005KT 8000 -TSRA BKN008 OVC040 FEW050CB
       
TAF SARP 292300Z 3000/3024 18005KT 8000 -DZRA BKN008 OVC040 TX16/3018Z TN15/3010Z 
     BECMG 3003/3005 5000 +DZRA OVC005 BKN040 
     BECMG 3015/3017 5000 -TSRA BKN008 OVC040 FEW050CB
       
TAF SASA 291100Z 2912/3012 VRB03KT 9999 BKN015 TX13/2918Z TN06/3010Z 
     PROB40 
     TEMPO 2912/2915 5000 BR BKN010 
     BECMG 2921/2923 09005KT 5000 DZ BR BKN010 OVC020
       
TAF SASJ 291700Z 2918/3018 09005KT 9999 SCT015 BKN025 TX13/2918Z TN07/3010Z 
     BECMG 2921/2923 09005KT 5000 DZ BR BKN010 OVC020 
     PROB40 
     TEMPO 3009/3012 VRB03KT 1500 DZ OVC005
       
TAF SAVC 292300Z 3000/3024 32004KT CAVOK TX13/3019Z TN02/3012Z 
     BECMG 3006/3009 29015KT 9999 FEW030 SCT090
       
TAF SAWE 292300Z 3000/3024 34005KT 9999 BR SCT015 OVC050 TX05/3019Z TN00/3012Z 
     PROB40 
     TEMPO 3003/3014 0500FG 
     BECMG 3014/3016 30015KT 9999 NSW BKN025 
     BECMG 3016/3018 25015KT
       
TAF SAWG 292300Z 3000/3024 36018KT 9999 SCT030 BKN070 TX07/3019Z TN00/3012Z 
     BECMG 3006/3008 VRB03KT 
     BECMG 3010/3013 5000 BR
       
TAF SAWH 292300Z 3000/3024 09005KT 9999 FEW030 SCT090 TX05/3019Z TN00/3012Z 
     PROB40 
     TEMPO 3003/3005 -RA BKN020 BKN080 
     BECMG 3009/3012 27018KT
       
TAF SAZM 292300Z 3000/3024 VRB03KT 6000 FEW030 TX12/3019Z TN01/3010Z 
     BECMG 3003/3006 2000 BR BKN010 
     BECMG 3012/3015 18010KT 9999 BKN020
       
TAF SAZN 292300Z 3000/3024 12005KT CAVOK TX14/3019Z TN01/3010Z 
     PROB40 3007/3012 5000 BR NSC 
     BECMG 3012/3015 9999 SCT030
       
TAF SAZS 292300Z 3000/3024 18005KT CAVOK TX08/3019Z TNM04/3010Z 
     PROB30 3007/3011 5000 BR FEW020 
     BECMG 3012/3015 11010KT 9999 SCT030
       
TAF SASA 291100Z 2912/3012 VRB03KT 9999 BKN015 TX13/2918Z TN06/3010Z 
     PROB40 
     TEMPO 2912/2915 5000 BR BKN010 
     BECMG 2921/2923 09005KT 5000 DZ BR BKN010 OVC020
       
TAF SAZS 292300Z 3000/3024 18005KT CAVOK TX08/3019Z TNM04/3010Z 
     PROB30 3007/3011 5000 BR FEW020 
     BECMG 3012/3015 11010KT 9999 SCT030
       
TAF SADF 292300Z 3000/3024 11010KT 9999 BKN025 TX16/3019Z TN09/3010Z 
     BECMG 3003/3006 VRB03KT 2000 BR SCT010 
     PROB40 0911 0800 FG BKN008 
     BECMG 3013/3015 16005T 9999 SCT020
       
TAF SAAR 292300Z 3000/3024 09005KT 9999 BKN025 TX16/3019Z TN07/3010Z 
     BECMG 3005/3008 14005KT 5000 BR BKN010 
     BECMG 3010/3011 0500 FG OVC005 
     BECMG 3014/3017 16005KT 9999 SCT030
       
TAF SABE 292300Z 3000/3024 16005KT 9999 SCT030 TX15/3019Z TN10/3010Z 
     BECMG 3005/3008 7000 SCT010 
     BECMG 3012/3014 9999 SCT035
       
TAF SACO 292300Z 3000/3024 07005KT 9999 BKN025 TX15/3018Z TN06/3010Z 
     PROB40 
     TEMPO 3007/3012 VRB03KT 5000 DZ/BR BKN010 OVC020 
     BECMG 3016/3018 18010KT 9999 SCT030
       
TAF SADF 292300Z 3000/3024 11010KT 9999 BKN025 TX16/3019Z TN09/3010Z 
     BECMG 3003/3006 VRB03KT 2000 BR SCT010 
     PROB40 0911 0800 FG BKN008 
     BECMG 3013/3015 16005T 9999 SCT020
       
TAF SAEZ 292300Z 3000/3024 18005KT 7000 SCT030 TX15/3018Z TN05/3009Z 
     BECMG 3004/3007 3000 BR SCT020 
     PROB40 3007/3011 0700 BCFG BKN008 
     BECMG 3013/3016 14005KT 9999 SCT030
       
TAF SAME 292300Z 3000/3024 14005KT 9999 FEW040 SCT080 TN04/3010Z TX17/3020Z 
     PROB30 
     TEMPO 3010/3014 16005KT 6000 HZFU SCT040
       
TAF SANT 292300Z 3000/3024 18005KT 4000 HZ BKN030 TX13/3018Z TN08/3010Z 
     BECMG 3004/3007 5000 DZ BR BKN010 OVC030 
     PROB40 
     TEMPO 3009/3012 VRB03KT 1500 DZ OVC005
       
TAF SARE 292300Z 3000/3024 20005KT 9999 OVC012 TX15/3018Z TN13/3010Z 
     BECMG 3002/3004 6000 DZBR SCT008 OVC010 
     BECMG 3014/3016 2000 +DZRA OVC005 OVC035
       
TAF SARF 292300Z 3000/3024 20005KT 8000 -DZ OVC005 TX16/3018Z TN14/3010Z 
     BECMG 3010/3012 3000 +DZBR BKN006 OVC015
       
TAF SARI 292300Z 3000/3024 24005KT 8000 -DZ BKN006 OVC015 TX20/3018Z TN15/3010Z 
     BECMG 3004/3006 5000 RADZ OVC005 OVC020 
     BECMG 3010/3012 02005KT 8000 -TSRA BKN008 OVC040 FEW050CB
       
TAF SARP 292300Z 3000/3024 18005KT 8000 -DZRA BKN008 OVC040 TX16/3018Z TN15/3010Z 
     BECMG 3003/3005 5000 +DZRA OVC005 BKN040 
     BECMG 3015/3017 5000 -TSRA BKN008 OVC040 FEW050CB
       
TAF SASA 291100Z 2912/3012 VRB03KT 9999 BKN015 TX13/2918Z TN06/3010Z 
     PROB40 
     TEMPO 2912/2915 5000 BR BKN010 
     BECMG 2921/2923 09005KT 5000 DZ BR BKN010 OVC020
       
TAF SASJ 291700Z 2918/3018 09005KT 9999 SCT015 BKN025 TX13/2918Z TN07/3010Z 
     BECMG 2921/2923 09005KT 5000 DZ BR BKN010 OVC020 
     PROB40 
     TEMPO 3009/3012 VRB03KT 1500 DZ OVC005
       
TAF SAVC 292300Z 3000/3024 32004KT CAVOK TX13/3019Z TN02/3012Z 
     BECMG 3006/3009 29015KT 9999 FEW030 SCT090
       
TAF SAWE 292300Z 3000/3024 34005KT 9999 BR SCT015 OVC050 TX05/3019Z TN00/3012Z 
     PROB40 
     TEMPO 3003/3014 0500FG 
     BECMG 3014/3016 30015KT 9999 NSW BKN025 
     BECMG 3016/3018 25015KT
       
TAF SAWG 292300Z 3000/3024 36018KT 9999 SCT030 BKN070 TX07/3019Z TN00/3012Z 
     BECMG 3006/3008 VRB03KT 
     BECMG 3010/3013 5000 BR
       
TAF SAWH 292300Z 3000/3024 09005KT 9999 FEW030 SCT090 TX05/3019Z TN00/3012Z 
     PROB40 
     TEMPO 3003/3005 -RA BKN020 BKN080 
     BECMG 3009/3012 27018KT
       
TAF SAZM 292300Z 3000/3024 VRB03KT 6000 FEW030 TX12/3019Z TN01/3010Z 
     BECMG 3003/3006 2000 BR BKN010 
     BECMG 3012/3015 18010KT 9999 BKN020
       
TAF SAZN 292300Z 3000/3024 12005KT CAVOK TX14/3019Z TN01/3010Z 
     PROB40 3007/3012 5000 BR NSC 
     BECMG 3012/3015 9999 SCT030
       
TAF SAZS 292300Z 3000/3024 18005KT CAVOK TX08/3019Z TNM04/3010Z 
     PROB30 3007/3011 5000 BR FEW020 
     BECMG 3012/3015 11010KT 9999 SCT030
       
TAF SANT 292300Z 3000/3024 18005KT 4000 HZ BKN030 TX13/3018Z TN08/3010Z 
     BECMG 3004/3007 5000 DZ BR BKN010 OVC030 
     PROB40 
     TEMPO 3009/3012 VRB03KT 1500 DZ OVC005
       
TAF SAWH 292300Z 3000/3024 09005KT 9999 FEW030 SCT090 TX05/3019Z TN00/3012Z 
     PROB40 
     TEMPO 3003/3005 -RA BKN020 BKN080 
     BECMG 3009/3012 27018KT